x

8413320 - Bar Harbor, Me (atgm1) Weather Station

3:54 - Wed 26th Nov 2014 All times are EST. -5 hours from GMT.

  • Wind
    6mph, 8mph gusts
  • Sea Temp 47°f
  • Luft Temp 33°f
  • Sea Pressure 1021.9mb
  • 8413320 - Bar Harbor, Me
  • 8413320 - Bar Harbor, Me

More Historic Weather Station data

Upgrade to MSW Pro to gain access to the past 30 days of data for over 8000 Wavebouys and Weather Stations around the globe.

Join Pro

Comparision Forecast

View Surf forecast
   
Mi 11/26 3:54 6 8 mph 1021.9mb 47f 33f
3:48 7 8 mph 1021.9mb 47f 34f
3:42 7 9 mph 1021.7mb 47f 34f
3:30 6 10 mph 1020.9mb 47f 33f
3:24 9 11 mph 1020.4mb 47f 34f
3:18 9 11 mph 1020.7mb 47f 33f
3:12 7 8 mph 1021.7mb 47f 34f
3:06 7 9 mph 1022.4mb 47f 34f
3:00 6 8 mph 1022.1mb 47f 34f
2:54 8 10 mph 1022mb 47f 34f
2:48 9 13 mph 1021.2mb 47f 34f
2:42 9 10 mph 1021mb 47f 34f
2:36 7 10 mph 1021.4mb 47f 35f
2:30 7 8 mph 1022mb 48f 34f
2:24 3 6 mph 1021.7mb 48f 34f
2:18 2 5 mph 1021.8mb 48f 35f
2:12 3 7 mph 1021.1mb 48f 35f
2:06 5 8 mph 1021.3mb 48f 35f
2:00 7 8 mph 1021.3mb 47f 35f
1:54 8 10 mph 1021.6mb 48f 35f
1:48 8 11 mph 1021.6mb 48f 35f
1:42 10 11 mph 1021.8mb 48f 35f
1:36 9 13 mph 1022.4mb 47f 35f
1:30 7 9 mph 1022.7mb 47f 36f
1:24 8 11 mph 1022.7mb 47f 36f
1:18 8 10 mph 1022.3mb 47f 37f
1:12 9 14 mph 1022mb 47f 38f
1:00 7 11 mph 1021.5mb 47f 40f
12:54 3 7 mph 1021.4mb 47f 40f
12:48 6 8 mph 1021.4mb 47f 40f
12:42 6 9 mph 1021.6mb 48f 40f
12:36 6 10 mph 1022.2mb 48f 40f
12:30 7 9 mph 1021.9mb 48f 40f
12:24 6 8 mph 1021.9mb 48f 40f
12:18 2 7 mph 1022.2mb 48f 40f
12:12 5 9 mph 1021.9mb 48f 40f
12:06 6 10 mph 1021.6mb 48f 40f
12:00 7 10 mph 1021.8mb 48f 40f
11:54 7 9 mph 1021.6mb 48f 40f
11:48 6 10 mph 1021.5mb - -
11:42 7 10 mph 1021.7mb 48f 40f
11:36 6 9 mph 1021.8mb 48f 40f
11:30 9 14 mph 1022mb 48f 40f
11:24 7 13 mph 1021.5mb 48f 40f
11:18 8 13 mph 1021.5mb 48f 40f
11:12 7 11 mph 1021.5mb 48f 40f
11:06 10 16 mph 1021.6mb 48f 40f
11:00 6 13 mph 1021.6mb 48f 40f
10:54 8 14 mph 1021.7mb 48f 40f
10:48 7 14 mph 1022mb 48f 40f
10:42 8 15 mph 1022.2mb 48f 40f
10:36 8 14 mph 1022.6mb 48f 40f
10:30 9 13 mph 1022.9mb 48f 40f
10:24 8 14 mph 1023.4mb 48f 40f
10:18 9 13 mph 1023.7mb 48f 40f
10:12 7 13 mph 1023.7mb 48f 40f
10:06 7 10 mph 1023.5mb 48f 40f
10:00 8 13 mph 1023.9mb 48f 40f
9:54 7 13 mph 1024.2mb 48f 40f
9:48 9 13 mph 1024.5mb 48f 40f
9:42 9 15 mph 1024.7mb 48f 41f
9:36 10 13 mph 1024.7mb 48f 41f
9:30 7 16 mph 1024.2mb 48f 41f
9:24 9 14 mph 1024.1mb 48f 41f
9:18 6 10 mph 1024mb 48f 41f
9:12 8 14 mph 1024mb 48f 41f
9:06 10 16 mph 1023.8mb 48f 41f
9:00 10 16 mph 1023.6mb 48f 41f
8:54 10 16 mph 1023.3mb 48f 42f
8:48 11 18 mph 1023.4mb 48f 42f
8:42 9 15 mph 1023.3mb 48f 42f
8:36 8 14 mph 1023.4mb 48f 42f
8:30 9 15 mph 1023.2mb 48f 42f
8:24 11 15 mph 1022.9mb 48f 42f
8:18 9 13 mph 1022.7mb 48f 43f
8:12 7 10 mph 1022.5mb 48f 43f
8:06 8 9 mph 1022.4mb 48f 43f
8:00 7 9 mph 1022.3mb 48f 43f
7:54 7 9 mph 1022.5mb 48f 43f
7:48 6 9 mph 1022.5mb 48f 43f
7:42 5 7 mph 1022.2mb 48f 43f
7:36 3 8 mph 1022.1mb 48f 43f
7:30 6 7 mph 1022.1mb 48f 43f
7:24 3 5 mph 1022.1mb 48f 43f
7:18 2 5 mph 1021.8mb 48f 43f
7:12 3 6 mph 1021.8mb 48f 43f
7:06 5 7 mph 1021.8mb 48f 43f
7:00 6 8 mph 1021.7mb 48f 43f
6:54 3 5 mph 1021.7mb 48f 43f
6:48 2 6 mph 1021.8mb 48f 43f
6:42 5 6 mph 1021.7mb 48f 44f
6:36 5 6 mph 1021.8mb 48f 44f
6:30 5 6 mph 1021.9mb 48f 44f
6:24 6 9 mph 1021.7mb 48f 44f
6:18 7 8 mph 1021.8mb 48f 44f
6:12 7 10 mph 1021.8mb 48f 44f
6:06 6 8 mph 1021.6mb 48f 44f
6:00 5 7 mph 1021.5mb 48f 45f
5:54 6 8 mph 1021.3mb 48f 45f
5:48 3 8 mph 1021.3mb 48f 45f
5:42 6 10 mph 1021.2mb 48f 45f
5:36 7 11 mph 1021.2mb 48f 45f
5:30 7 11 mph 1021mb 48f 46f
5:24 8 11 mph 1021mb 48f 46f
5:18 6 9 mph 1021mb 48f 46f
5:12 7 10 mph 1020.9mb 48f 46f
5:06 6 9 mph 1020.9mb 48f 46f
5:00 8 11 mph 1020.8mb 48f 46f
4:54 8 11 mph 1020.9mb 48f 46f
4:48 7 10 mph 1020.9mb 48f 46f
4:42 8 11 mph 1020.8mb 48f 46f
4:36 7 11 mph 1020.8mb 48f 46f
4:30 7 11 mph 1020.6mb 48f 47f
4:24 6 10 mph 1020.4mb 48f 47f
4:18 8 11 mph 1020.3mb 48f 46f
4:12 6 9 mph 1020.1mb 48f 46f
4:06 6 9 mph 1020.3mb 48f 46f
4:00 6 9 mph 1020.3mb 48f 46f
3:54 6 8 mph 1020.2mb 48f 46f
3:48 5 7 mph 1020.1mb 48f 46f
3:42 5 8 mph 1019.8mb 48f 46f
3:36 5 7 mph 1019.9mb 48f 46f
3:30 5 7 mph 1019.8mb 48f 46f
3:24 5 8 mph 1019.6mb 48f 46f
3:18 7 10 mph 1019.8mb 48f 46f
3:12 7 11 mph 1019.6mb 48f 46f
3:06 7 10 mph 1019.4mb 48f 47f
3:00 9 13 mph 1019.6mb 48f 47f
2:54 11 16 mph 1019.3mb 48f 48f
2:48 8 16 mph 1019.2mb 48f 48f
2:42 7 11 mph 1019.2mb 48f 48f
2:36 7 11 mph 1019.4mb 48f 47f
2:30 8 13 mph 1019.2mb 48f 47f
2:24 6 9 mph 1019mb 48f 47f
2:18 6 11 mph 1019mb 48f 47f
2:12 7 13 mph 1019.2mb 48f 48f
2:06 8 14 mph 1019.2mb 48f 48f
2:00 8 13 mph 1019.1mb 48f 48f
1:54 8 13 mph 1019.1mb 48f 47f
1:48 8 11 mph 1019mb 48f 47f
1:42 7 10 mph 1018.8mb 48f 47f
1:36 7 10 mph 1018.8mb 48f 46f
1:30 8 11 mph 1018.6mb 48f 46f
1:24 8 11 mph 1018.5mb 48f 46f
1:18 8 11 mph 1018.4mb 48f 46f
1:12 8 10 mph 1018.4mb 48f 46f
1:06 8 10 mph 1018.3mb 48f 46f
1:00 6 9 mph 1018.4mb 48f 46f
12:54 6 8 mph 1018.3mb 48f 46f
12:48 6 9 mph 1018.2mb 48f 46f
12:42 6 9 mph 1018.2mb 49f 46f
12:36 6 7 mph 1017.9mb 49f 46f
12:30 5 6 mph 1017.8mb 49f 46f
12:24 5 7 mph 1017.8mb 49f 46f
12:18 6 9 mph 1017.7mb 49f 47f
12:12 6 7 mph 1017.6mb 49f 47f
12:06 7 11 mph 1017.7mb 49f 47f
12:00 6 10 mph 1017.5mb 49f 47f
Di 11/25 11:54 7 10 mph 1017.5mb 49f 47f
11:48 7 9 mph 1017.6mb 49f 47f
11:42 3 6 mph 1017.4mb 49f 47f
11:36 5 7 mph 1017.3mb 49f 47f
11:30 5 8 mph 1017.1mb 49f 47f
11:24 7 9 mph 1017mb 49f 47f
11:18 8 10 mph 1016.8mb 49f 47f
11:12 8 11 mph 1016.7mb 49f 47f
11:06 8 14 mph 1016.5mb 49f 48f
11:00 11 15 mph 1016.4mb 49f 49f
10:54 10 16 mph 1016.1mb 49f 49f
10:48 7 14 mph 1016.3mb 49f 49f
10:42 10 15 mph 1016mb 49f 49f
10:36 8 15 mph 1015.8mb 49f 49f
10:30 9 15 mph 1015.8mb 49f 49f
10:24 8 14 mph 1015.7mb 49f 49f
10:18 9 14 mph 1015.5mb 49f 49f
10:12 10 14 mph 1015.3mb 49f 49f
10:06 8 14 mph 1015.2mb 49f 49f
10:00 9 14 mph 1015.1mb 49f 49f
9:54 9 14 mph 1014.8mb 49f 49f
9:48 8 11 mph 1014.7mb 49f 49f
9:42 6 11 mph 1014.6mb 49f 49f
9:36 8 13 mph 1014.7mb 49f 49f
9:30 6 9 mph 1014.6mb 49f 49f
9:24 8 13 mph 1014.7mb 49f 49f
9:18 7 15 mph 1014.6mb 49f 50f
9:12 8 14 mph 1014.6mb 49f 50f
9:06 9 14 mph 1014.6mb 49f 50f
9:00 10 15 mph 1014.4mb 49f 50f
8:54 8 13 mph 1014.3mb 49f 50f
8:48 7 13 mph 1014mb 49f 50f
8:42 9 15 mph 1013.8mb 49f 50f
8:36 8 13 mph 1013.6mb 49f 51f
8:30 9 13 mph 1013.6mb - 51f
8:24 7 10 mph 1013.5mb - 51f
8:18 8 11 mph 1013.5mb 49f 51f
8:12 8 14 mph 1013.3mb 49f 52f
8:06 9 15 mph 1013.2mb 49f 52f
8:00 10 15 mph 1013.2mb 49f 52f
7:54 11 20 mph 1013mb 49f 52f
7:48 16 21 mph 1012.8mb 49f 53f
7:42 13 20 mph 1012.6mb 49f 53f
7:36 11 20 mph 1012.3mb 49f 53f
7:30 14 20 mph 1012.2mb 49f 53f
7:24 11 18 mph 1012.2mb 49f 53f
7:18 10 17 mph 1012.1mb 49f 53f
7:12 11 21 mph 1012.1mb 49f 53f
7:06 10 15 mph 1011.9mb 49f 53f
7:00 10 17 mph 1011.9mb 49f 53f
6:54 10 15 mph 1011.8mb 49f 53f
6:48 11 20 mph 1011.8mb 49f 53f
6:42 10 14 mph 1011.9mb 49f 54f
6:36 9 14 mph 1011.8mb 49f 53f
6:30 11 17 mph 1011.7mb 49f 54f
6:24 9 17 mph 1011.5mb 49f 54f
6:18 13 17 mph 1011.5mb 49f 54f
6:12 11 18 mph 1011.3mb 49f 54f
6:06 9 15 mph 1011.2mb 49f 54f
6:00 10 16 mph 1011mb 49f 55f
5:54 9 17 mph 1010.6mb 49f 55f
5:48 13 16 mph 1010.5mb 49f 55f
5:42 13 20 mph 1010.3mb 49f 55f
5:36 11 17 mph 1010.1mb 49f 55f
5:30 11 20 mph 1010.2mb 49f 55f
5:24 13 20 mph 1010.1mb 49f 56f
5:18 13 20 mph 1010.1mb 49f 56f
5:12 15 20 mph 1010.1mb 49f 56f
5:06 11 20 mph 1009.9mb 49f 56f
5:00 9 21 mph 1010mb 49f 56f
4:54 10 18 mph 1010mb 49f 56f
4:48 10 18 mph 1009.8mb 49f 57f
4:42 11 17 mph 1009.6mb 49f 57f
4:36 9 16 mph 1009.4mb 49f 57f
4:30 8 13 mph 1009.2mb 49f 57f
4:24 9 16 mph 1009.1mb 49f 57f
4:18 10 14 mph 1009mb 49f 57f
4:12 6 14 mph 1008.9mb 49f 57f
4:06 9 18 mph 1009mb 49f 57f
4:00 6 15 mph 1008.8mb 49f 58f
3:54 8 14 mph 1008.8mb 49f 58f
3:48 11 20 mph 1008.8mb 49f 58f
3:42 9 21 mph 1009mb 49f 58f
3:36 14 21 mph 1008.9mb 49f 58f
3:30 10 18 mph 1009mb 49f 58f
3:24 10 16 mph 1008.9mb 49f 58f
3:18 11 17 mph 1008.9mb 49f 58f
3:12 9 21 mph 1008.9mb 49f 58f
3:06 10 18 mph 1008.9mb 49f 58f
3:00 6 16 mph 1009mb 49f 58f
2:54 10 15 mph 1008.9mb 49f 58f
2:48 7 15 mph 1009mb 49f 58f
2:42 11 21 mph 1008.6mb 49f 59f
2:36 10 20 mph 1008.7mb 49f 59f
2:30 7 18 mph 1008.6mb 49f 59f
2:24 14 20 mph 1008.4mb 49f 59f
2:18 11 23 mph 1008.5mb 49f 59f
2:12 6 16 mph 1008.3mb 49f 59f
2:06 7 15 mph 1008.1mb 49f 60f
2:00 9 20 mph 1008.1mb 49f 60f
1:54 11 21 mph 1008.1mb 49f 60f
1:48 11 17 mph 1008mb 49f 60f
1:42 13 21 mph 1008mb 49f 60f
1:36 9 16 mph 1008.2mb 49f 60f
1:30 14 22 mph 1008.1mb 49f 60f
1:24 9 17 mph 1008.1mb 49f 60f
1:18 13 18 mph 1008.1mb 49f 60f
1:12 10 15 mph 1008.1mb 49f 60f
1:06 8 24 mph 1008mb 49f 60f
1:00 11 18 mph 1008.1mb 49f 60f
12:54 6 14 mph 1008.1mb 49f 60f
12:48 9 15 mph 1008.2mb 49f 60f
12:42 6 14 mph 1008.1mb 49f 60f
12:36 11 15 mph 1008.1mb 49f 59f
12:30 7 15 mph 1008.1mb 49f 60f
12:24 13 18 mph 1008mb 49f 60f
12:18 9 16 mph 1007.9mb 49f 60f
12:06 9 13 mph 1007.8mb 49f 60f
12:00 9 14 mph 1007.8mb 49f 60f
11:54 8 15 mph 1007.9mb 49f 59f
11:48 6 20 mph 1008mb 49f 59f
11:42 9 17 mph 1008mb 49f 59f
11:36 11 17 mph 1007.9mb 49f 59f
11:30 11 17 mph 1007.8mb 49f 60f
11:24 8 15 mph 1007.7mb 49f 60f
11:18 8 11 mph 1007.8mb 49f 60f
11:12 7 15 mph 1007.9mb 49f 60f
11:06 10 17 mph 1007.9mb 49f 60f
11:00 10 18 mph 1008mb 49f 61f
10:54 9 15 mph 1008mb 49f 61f
10:48 11 15 mph 1007.8mb 49f 61f
10:42 10 16 mph 1007.7mb 49f 60f
10:36 9 14 mph 1007.5mb 49f 60f
10:30 7 13 mph 1007.7mb 49f 61f
10:24 11 17 mph 1007.9mb 49f 60f
10:18 15 21 mph 1008.1mb 49f 61f
10:12 10 18 mph 1008.1mb 49f 61f
10:06 11 17 mph 1008.1mb 49f 61f
10:00 13 21 mph 1008.1mb 49f 61f
9:54 11 17 mph 1007.9mb 49f 61f
9:48 11 20 mph 1007.9mb 49f 61f
9:42 13 20 mph 1007.9mb 49f 60f
9:36 13 18 mph 1007.8mb 49f 60f
9:30 13 17 mph 1007.7mb 49f 60f
9:24 10 20 mph 1007.8mb 49f 60f
9:18 10 20 mph - - -
9:12 14 22 mph - - -
9:06 16 24 mph - - -
9:00 11 17 mph 1007.5mb 49f 60f
8:54 10 17 mph 1007.3mb 49f 60f
8:48 14 20 mph 1007.1mb 49f 60f
8:42 11 22 mph 1007.1mb 49f 60f
8:36 13 22 mph 1007mb 49f 60f
8:30 10 23 mph 1007mb 49f 60f
8:24 14 22 mph 1007mb 49f 60f
8:18 10 20 mph 1006.9mb 49f 60f
8:12 9 26 mph 1007mb 49f 60f
8:06 13 22 mph 1007mb 49f 60f
8:00 11 20 mph 1006.9mb 49f 61f
7:54 11 17 mph 1006.9mb 49f 61f
7:48 9 16 mph 1006.8mb 49f 60f
7:42 9 20 mph 1006.7mb 49f 60f
7:36 10 20 mph 1006.7mb 49f 60f
7:30 14 22 mph 1006.6mb 49f 60f
7:24 10 23 mph 1006.6mb 49f 60f
7:18 11 20 mph 1006.3mb 49f 61f
7:12 11 21 mph 1006.2mb 49f 61f
7:06 10 22 mph 1006mb 49f 61f
7:00 15 23 mph 1006.1mb 49f 60f
6:54 14 22 mph 1006mb 49f 61f
6:48 9 18 mph 1005.7mb 49f 60f
6:42 11 21 mph 1005.5mb 49f 60f
6:36 14 21 mph 1005.3mb 49f 60f
6:30 11 15 mph 1005.2mb 49f 60f
6:24 13 18 mph 1005.2mb 49f 60f
6:18 8 17 mph 1005.1mb 49f 60f
6:12 11 20 mph 1005.1mb 49f 60f
6:06 13 20 mph 1005mb 49f 60f
6:00 11 18 mph 1004.9mb 49f 60f
5:54 10 16 mph 1004.8mb 49f 60f
5:48 14 18 mph 1004.6mb 49f 60f
5:42 7 17 mph 1004.5mb 49f 60f
5:36 10 21 mph 1004.5mb 49f 60f
5:30 13 20 mph 1004.6mb 49f 60f
5:24 15 23 mph 1004.7mb 49f 61f
5:18 9 16 mph 1004.6mb 49f 60f
5:12 6 17 mph 1004.5mb 49f 60f
5:00 11 23 mph 1004.3mb 49f 60f
4:54 9 18 mph 1004.4mb 49f 60f
4:48 8 18 mph 1004.4mb 49f 60f
4:42 13 18 mph 1004.2mb 49f 60f
4:36 11 22 mph 1004.3mb 49f 60f
4:30 8 18 mph 1004.3mb 49f 59f
4:24 8 15 mph 1004.2mb 49f 59f
4:18 7 15 mph 1004.1mb 49f 60f
4:12 11 21 mph 1004.1mb 49f 60f
4:06 8 17 mph 1004mb 49f 59f
4:00 6 17 mph 1004.1mb 49f 60f
3:54 13 17 mph 1004.1mb 49f 60f
3:48 7 13 mph 1004.1mb 49f 59f
3:42 8 14 mph 1004.1mb 49f 60f
3:36 10 14 mph 1004mb 49f 61f
3:30 11 18 mph 1003.9mb 49f 62f
3:24 13 24 mph 1003.8mb 49f 61f
3:18 15 25 mph 1003.9mb 49f 61f
3:12 14 25 mph 1004.1mb 49f 61f
3:06 7 15 mph 1004.1mb 49f 61f
3:00 11 20 mph 1003.9mb 49f 61f
2:54 13 23 mph 1003.9mb 49f 60f
2:48 15 28 mph 1003.7mb 49f 60f
2:42 18 30 mph 1003.6mb 49f 61f
2:36 10 23 mph 1003.5mb 49f 59f
2:30 11 20 mph 1003.7mb 49f 59f
2:24 13 18 mph 1003.9mb 49f 58f
2:18 10 20 mph 1003.7mb 49f 58f
2:12 10 22 mph 1003.6mb 49f 59f
2:06 9 23 mph 1003.6mb 49f 59f
2:00 8 20 mph 1003.5mb 49f 59f
1:54 15 28 mph 1003.5mb 49f 59f
1:48 15 28 mph 1003.6mb 49f 59f
1:42 14 21 mph 1003.5mb 49f 59f
1:36 15 22 mph 1003.3mb 49f 60f
1:30 10 22 mph 1003.1mb 49f 60f
1:24 16 28 mph 1002.9mb 49f 60f
1:18 14 21 mph 1002.8mb 49f 60f
1:12 13 25 mph 1002.8mb 49f 60f
1:06 16 22 mph 1002.7mb 49f 60f
1:00 9 17 mph 1002.7mb 49f 60f
12:54 11 23 mph 1002.6mb 49f 59f
12:48 15 25 mph 1002.5mb 49f 60f
12:42 13 23 mph 1002.6mb 49f 60f
12:36 13 23 mph 1002.5mb 49f 60f
12:30 15 24 mph 1002.4mb 49f 59f
12:24 15 23 mph 1002.4mb 49f 59f
12:18 9 20 mph 1002.4mb 49f 59f
12:12 14 23 mph 1002.4mb 49f 59f
12:06 11 23 mph 1002.4mb 49f 58f
12:00 14 21 mph 1002.3mb 49f 58f
Mo 11/24 11:54 15 26 mph 1002.3mb 49f 58f
11:48 21 30 mph 1002.3mb 49f 59f
11:42 13 23 mph 1002.3mb 49f 58f
11:36 14 25 mph 1002.3mb 49f 59f
11:30 15 29 mph 1002.2mb 49f 59f
11:24 14 25 mph 1002.1mb 49f 59f
11:18 16 25 mph 1001.9mb 49f 59f
11:12 10 25 mph 1001.9mb 49f 59f
11:06 18 29 mph 1001.9mb 49f 59f
11:00 17 32 mph 1001.9mb 49f 59f
10:54 11 23 mph 1001.8mb 49f 59f
10:48 13 25 mph 1001.8mb 49f 59f
10:42 15 28 mph 1001.7mb 49f 59f
10:36 15 23 mph 1001.7mb 49f 59f
10:30 16 24 mph 1001.8mb 49f 59f
10:24 14 25 mph 1001.9mb 49f 59f
10:18 14 24 mph 1002mb 49f 59f
10:12 20 26 mph 1001.8mb 49f 59f
10:06 13 31 mph 1001.8mb 49f 59f
10:00 21 29 mph 1001.7mb 49f 59f
9:54 15 28 mph 1001.6mb 49f 59f
9:48 15 29 mph 1001.6mb 49f 59f
9:42 14 30 mph 1001.5mb 49f 59f
9:36 16 32 mph 1001.4mb 49f 59f
9:30 10 29 mph 1001.5mb 49f 59f
9:24 11 24 mph 1001.5mb 49f 59f
9:18 11 28 mph 1001.5mb 49f 58f
9:12 15 25 mph 1001.4mb 49f 59f
9:06 14 24 mph 1001.5mb 49f 58f
9:00 14 32 mph 1001.5mb 49f 59f
8:54 13 24 mph 1001.6mb 49f 59f
8:48 18 26 mph 1001.6mb 49f 59f
8:42 14 28 mph 1001.7mb 49f 59f
8:36 16 29 mph 1001.7mb 49f 59f
8:30 16 29 mph 1001.8mb 49f 59f
8:24 16 28 mph 1001.8mb 49f 59f
8:18 13 33 mph 1001.9mb 49f 59f
8:12 14 31 mph 1002mb 49f 60f
8:06 20 34 mph 1002mb 49f 60f
8:00 10 34 mph 1002.2mb 49f 60f
7:54 16 33 mph 1002.2mb 49f 60f
7:48 10 34 mph 1002.3mb 49f 60f
7:42 23 37 mph 1002.4mb 49f 60f
7:36 15 31 mph 1002.5mb 49f 60f
7:30 21 31 mph 1002.3mb 49f 60f
7:24 10 33 mph 1002.4mb 49f 60f
7:18 16 31 mph 1002.4mb 49f 60f
7:12 15 28 mph 1002.5mb 49f 59f
7:06 17 41 mph 1002.4mb 49f 59f
7:00 11 29 mph 1002.3mb 49f 59f
6:54 17 30 mph 1002.3mb 49f 59f
6:48 20 33 mph 1002.1mb 49f 59f
6:42 17 31 mph 1002.1mb 49f 59f
6:36 17 30 mph 1001.9mb 49f 59f
6:30 16 32 mph 1002mb 49f 58f
6:24 13 29 mph 1001.8mb 49f 58f
6:18 20 28 mph 1001.8mb 49f 59f
6:12 9 24 mph 1001.8mb 49f 58f
6:06 18 34 mph 1001.5mb 49f 59f
6:00 14 25 mph 1001.6mb 49f 59f
5:54 20 38 mph 1001.7mb 49f 59f
5:48 11 30 mph 1001.8mb 49f 58f
5:42 10 26 mph 1002mb 49f 58f
5:36 11 24 mph 1002mb 49f 58f
5:30 14 36 mph 1002.1mb 49f 58f
5:24 15 29 mph 1002.2mb 49f 58f
5:18 13 28 mph 1002.3mb 49f 59f
5:12 11 34 mph 1002.4mb 49f 59f
5:06 11 30 mph 1002.3mb 49f 59f
4:54 10 28 mph 1002.4mb 49f 59f
4:48 17 31 mph 1002.4mb 49f 59f
4:42 14 31 mph 1002.6mb 49f 59f
4:36 17 36 mph 1002.7mb 49f 59f
4:30 15 33 mph 1002.7mb 49f 59f
4:24 13 32 mph 1002.8mb 49f 59f
4:18 11 28 mph 1003mb 49f 58f
4:12 18 29 mph 1003mb 48f 58f
4:06 18 33 mph 1003.1mb 48f 58f
4:00 11 28 mph 1003.2mb 48f 58f
3:54 13 30 mph 1003.3mb 48f 58f
3:48 10 23 mph 1003.4mb 48f 58f
3:42 10 22 mph 1003.5mb 48f 58f
3:36 14 24 mph 1003.7mb 48f 58f
3:30 15 23 mph 1003.6mb 48f 58f
3:24 16 33 mph 1003.6mb 48f 58f
3:18 11 22 mph 1003.8mb 48f 58f
3:12 15 28 mph 1003.8mb 48f 58f
3:06 15 30 mph 1004mb 48f 58f
3:00 15 33 mph 1004mb 48f 58f
2:54 13 29 mph 1004mb 48f 58f
2:48 15 30 mph 1004mb 48f 58f
2:42 21 37 mph 1004mb 48f 58f
2:36 16 30 mph 1004.1mb 48f 58f
2:30 22 37 mph 1004.2mb 48f 58f
2:24 24 39 mph 1004.2mb 48f 58f
2:18 21 38 mph 1004.3mb 48f 58f
2:12 17 41 mph 1004.5mb 48f 58f
2:06 14 32 mph 1004.5mb 48f 57f
2:00 15 30 mph 1004.6mb 48f 57f
1:54 18 36 mph 1004.7mb 48f 57f
1:48 14 26 mph 1004.6mb 49f 56f
1:42 14 25 mph 1004.7mb 48f 56f
1:36 11 34 mph 1004.7mb 48f 56f
1:30 14 31 mph 1005.1mb 48f 56f
1:24 13 26 mph 1005.3mb 48f 56f
1:18 18 29 mph 1005.2mb 48f 56f
1:12 9 24 mph 1005.6mb 48f 55f
1:06 18 31 mph 1005.8mb 48f 55f
1:00 14 23 mph 1006mb 48f 55f
12:54 15 28 mph 1006.1mb 48f 55f
12:48 14 34 mph 1006.3mb 48f 55f
12:42 16 25 mph 1006.5mb 48f 55f
12:36 13 24 mph 1006.8mb 48f 55f
12:30 14 22 mph 1007mb 48f 54f
12:24 14 24 mph 1007.1mb 48f 54f
12:18 14 24 mph 1007.3mb 48f 54f
12:12 11 21 mph 1007.7mb 48f 54f
12:06 10 18 mph 1007.9mb 48f 54f
12:00 9 24 mph 1008.1mb 48f 54f
11:54 15 25 mph 1008.3mb 48f 54f
11:48 13 24 mph 1008.4mb 48f 54f
11:42 16 25 mph 1008.6mb 48f 54f
11:36 14 22 mph 1008.8mb 48f 54f
11:30 17 24 mph 1009mb 48f 54f
11:24 10 26 mph 1009.5mb 48f 54f
11:18 14 24 mph 1009.7mb 48f 54f
11:12 14 25 mph 1010mb 48f 54f
11:06 17 33 mph 1010.4mb 48f 54f
11:00 16 29 mph 1010.5mb 48f 54f
10:54 15 25 mph 1010.7mb 48f 53f
10:48 20 29 mph 1010.3mb 48f 53f
10:42 15 28 mph 1010.6mb 48f 53f
10:36 15 26 mph 1010mb 48f 52f
10:30 15 28 mph 1010.3mb 48f 52f
10:24 16 26 mph 1011mb 48f 52f
10:18 16 24 mph 1011.2mb 48f 52f
10:12 15 23 mph 1011.6mb 48f 52f
10:06 14 23 mph 1011.8mb 48f 52f
10:00 14 25 mph 1012.3mb 48f 52f
9:54 13 20 mph 1013.3mb 48f 52f
9:48 15 25 mph 1013.8mb 48f 52f
9:42 8 16 mph 1014.1mb 48f 52f
9:36 10 20 mph 1014.2mb 48f 52f
9:30 6 14 mph 1014.3mb 48f 52f
9:24 8 15 mph 1014.8mb 48f 52f
9:18 8 13 mph 1015.2mb 48f 52f
9:12 8 11 mph 1015.4mb 48f 51f
9:06 6 10 mph 1015.5mb 48f 51f
9:00 3 11 mph 1015.5mb 48f 51f
8:54 6 11 mph 1015.4mb 48f 51f
8:48 7 9 mph 1015.5mb 48f 51f
8:42 6 9 mph 1015.6mb 48f 51f
8:36 6 9 mph 1015.6mb 48f 51f
8:30 6 9 mph 1015.7mb 48f 51f
8:24 7 10 mph 1015.7mb 48f 51f
8:18 8 11 mph 1015.8mb 48f 51f
8:12 8 14 mph 1015.9mb 48f 51f
8:06 9 15 mph 1016.1mb 48f 51f
7:54 10 13 mph 1016.2mb 48f 50f
7:48 10 16 mph 1016.2mb 48f 51f
7:36 10 20 mph 1016.4mb 48f 51f
7:30 8 18 mph 1016.5mb 48f 50f
7:24 8 15 mph 1016.7mb 48f 50f
7:18 7 16 mph 1016.7mb 48f 50f
7:12 8 11 mph 1016.6mb 48f 50f
7:06 7 15 mph 1016.6mb 48f 50f
7:00 8 15 mph 1016.9mb 48f 51f
6:54 7 15 mph 1017.1mb 48f 50f
6:48 10 20 mph 1017.2mb 48f 50f
6:42 10 17 mph 1017.2mb 48f 50f
6:36 11 20 mph 1017.4mb 48f 50f
6:30 10 16 mph 1017.3mb 48f 50f
6:24 10 18 mph 1017.3mb 48f 50f
6:18 9 18 mph 1017.5mb 48f 50f
6:12 11 17 mph 1017.5mb 48f 50f
6:06 11 22 mph 1017.6mb 48f 50f
6:00 11 22 mph 1017.5mb 48f 49f
5:54 11 18 mph 1017.8mb 48f 49f
5:48 10 14 mph 1017.7mb 48f 49f
5:42 10 14 mph 1017.9mb 48f 49f
5:36 7 10 mph 1018.1mb 48f 49f
5:30 9 15 mph 1018.1mb 48f 49f
5:24 8 16 mph 1018mb 48f 49f
5:18 8 17 mph 1018.2mb 48f 49f
5:12 7 13 mph 1018.4mb 48f 49f
5:06 7 13 mph 1018.5mb 48f 49f
5:00 9 15 mph 1018.4mb 48f 49f
4:54 9 17 mph 1018.4mb 48f 49f
4:48 9 15 mph 1018.3mb 48f 49f
4:42 11 16 mph 1018.4mb 48f 49f
4:36 10 15 mph 1018.4mb 48f 49f
4:30 9 13 mph 1018.4mb 48f 49f
4:24 8 11 mph 1018.5mb 48f 49f
4:18 10 14 mph 1018.6mb 48f 49f
4:12 8 11 mph 1018.8mb 48f 49f
4:00 6 13 mph 1018.9mb 48f 49f
3:54 9 14 mph 1018.9mb 48f 49f
3:48 7 14 mph 1018.9mb 48f 49f
3:42 9 15 mph 1018.9mb 48f 49f
3:36 7 10 mph 1018.9mb 48f 49f
3:30 6 11 mph 1018.9mb 48f 49f
3:24 3 10 mph 1019.1mb 48f 49f
3:18 7 10 mph 1019.3mb 48f 49f
3:12 6 10 mph 1019.3mb 48f 49f
3:06  -  8 mph 1019.4mb 48f 49f
3:00 3 8 mph 1019.5mb 48f 49f
2:54 2 9 mph 1019.6mb 48f 49f
2:48 6 11 mph 1019.6mb 48f 49f
2:42 6 14 mph 1019.8mb 48f 49f
2:36 6 10 mph 1019.9mb 48f 49f
2:30 5 8 mph 1020mb 48f 49f
2:24 5 6 mph 1020.2mb 48f 49f
2:18 5 7 mph 1020.4mb 48f 49f
2:12  -  6 mph 1020.4mb 48f 49f
2:06  -  5 mph 1020.5mb 48f 49f
2:00 3 7 mph 1020.4mb 48f 49f
1:54 2 10 mph 1020.4mb 48f 49f
1:48 5 9 mph 1020.3mb 48f 49f
1:42 3 7 mph 1020.1mb 48f 49f
1:36 5 7 mph 1020.1mb 48f 49f
1:30 3 6 mph 1020.3mb 48f 49f
1:24 3 6 mph 1020.2mb 48f 49f
1:18 5 10 mph 1020.3mb 48f 49f
1:12 6 10 mph 1020.3mb 48f 49f
1:06 6 9 mph 1020.4mb 48f 49f
1:00 6 13 mph 1020.4mb 48f 49f
12:54 6 10 mph 1020.6mb 48f 49f
12:48 6 13 mph 1020.6mb 48f 49f
12:42 5 11 mph 1020.5mb 48f 49f
12:36 8 10 mph 1020.5mb 48f 49f
12:30 6 9 mph 1020.6mb 48f 49f
12:24 5 8 mph 1020.5mb 48f 49f
12:18  -  3 mph 1020.6mb 48f 48f
12:12 2 6 mph 1020.6mb 48f 49f
12:06 5 7 mph 1020.8mb 48f 49f
12:00 3 6 mph 1020.9mb 48f 49f
So 11/23 11:54 3 8 mph 1021.2mb 48f 48f
11:48 3 9 mph 1021.1mb 48f 48f
11:42 3 8 mph 1021.1mb 48f 48f
11:36 1 7 mph 1021.1mb 48f 48f
11:30 1 6 mph 1021.1mb 48f 48f
11:24  -  3 mph 1021.1mb 48f 46f
11:18  -  2 mph 1021.1mb 48f 44f
11:12 2 3 mph 1021mb 48f 44f
11:06 2 3 mph 1021.2mb 48f 44f
11:00 2 5 mph 1021.1mb 48f 45f
10:54  -  5 mph 1021.1mb 48f 45f
10:48 3 5 mph 1021.1mb 48f 45f
10:42 2 5 mph 1020.9mb 48f 45f
10:36 5 6 mph 1020.9mb 48f 45f
10:30 5 7 mph 1020.9mb 48f 45f
10:24 3 6 mph 1021mb 48f 45f
10:18 7 9 mph 1021mb 48f 46f
10:12 2 6 mph 1021mb 48f 44f
10:06 2 5 mph 1021mb 48f 44f
10:00  -  2 mph 1020.9mb 48f 44f
9:54  -  3 mph 1020.9mb 48f 44f
9:48 3 6 mph 1020.9mb 48f 45f
9:42  -  5 mph 1021mb 48f 48f
9:36  -  3 mph 1021.1mb 48f 48f
9:30 3 6 mph 1021.2mb 48f 49f
9:24 1 7 mph 1021.3mb 47f 49f
9:18 2 5 mph 1021.4mb 47f 48f
9:12 2 3 mph 1021.5mb 47f 48f
9:06 2 5 mph 1021.5mb 47f 46f
9:00 2 3 mph 1021.5mb 47f 46f
8:54  -  1 mph 1021.5mb 47f 44f
8:48  -  1 mph 1021.4mb 47f 45f
8:42  -  mph 1021.3mb 47f 45f
8:36  -  3 mph 1021.1mb 47f 45f
8:30 2 3 mph 1021.1mb 47f 46f
8:24 2 3 mph 1021mb 47f 46f
8:18  -  mph 1020.9mb 47f 46f
8:12  -  mph 1020.9mb 48f 46f
8:06  -  mph 1020.9mb 48f 46f
8:00  -  mph 1020.9mb 48f 46f
7:54  -  mph 1020.9mb 48f 46f
7:48  -  mph 1020.8mb 48f 46f
7:42  -  3 mph 1020.7mb 48f 46f
7:36  -  mph 1020.6mb 48f 47f
7:30  -  mph 1020.3mb 48f 47f
7:24  -  2 mph 1020.3mb 48f 48f
7:18  -  mph 1020.2mb 48f 47f
7:12  -  3 mph 1020.1mb 48f 48f
7:06 2 5 mph 1020.1mb 48f 48f
7:00 2 3 mph 1020.1mb 48f 47f
6:54  -  5 mph 1020.1mb 48f 47f
6:48  -  mph 1020.1mb 48f 47f
6:42  -  mph 1020mb 48f 47f
6:36  -  2 mph 1019.9mb 48f 47f
6:30  -  mph 1019.9mb 48f 47f
6:24  -  mph 1019.9mb 48f 47f
6:18  -  mph 1019.8mb 47f 47f
6:12  -  3 mph 1019.7mb 47f 48f
6:06  -  2 mph 1019.8mb 47f 47f
6:00  -  mph 1019.8mb 47f 47f
5:54  -  mph 1020mb 47f 47f
5:48  -  mph 1019.9mb 47f 47f
5:42  -  mph 1019.8mb 47f 48f
5:36  -  3 mph 1019.6mb 47f 48f
5:30 2 3 mph 1019.5mb 47f 48f
5:24  -  mph 1019.5mb 47f 48f
5:18  -  mph 1019.6mb 47f 48f
5:12  -  mph 1019.5mb 47f 49f
5:06  -  2 mph 1019.5mb 47f 48f
5:00  -  2 mph 1019.7mb 47f 49f
4:54  -  mph 1019.5mb 47f 49f
4:48  -  mph 1019.4mb 47f 49f
4:42  -  mph 1019.4mb 47f 48f
4:36  -  1 mph 1019.4mb 47f 49f
4:30  -  mph 1019.3mb 47f 48f
4:24  -  mph 1019.3mb 47f 49f
4:18  -  mph 1019.4mb 47f 48f
4:12  -  mph 1019.3mb 47f 48f
4:06  -  mph 1019.3mb 47f 49f
4:00  -  mph 1019.3mb 47f 49f
3:54  -  1 mph 1019.1mb 47f 49f
3:48  -  mph 1019.1mb 47f 49f
3:42  -  2 mph 1019.1mb 47f 49f
3:36  -  3 mph 1019mb 47f 49f
3:30 1 3 mph 1018.9mb 47f 49f
3:24  -  mph 1019mb 47f 49f
3:18  -  mph 1019.1mb 47f 49f
3:12  -  mph 1019mb 47f 49f
3:06 1 3 mph 1019mb 47f 50f
2:54  -  3 mph 1018.8mb 47f 50f
2:48 1 5 mph 1018.7mb 47f 50f
2:42 3 6 mph 1018.4mb 47f 50f
2:36 3 6 mph 1018.3mb 47f 50f
2:30 3 9 mph 1018.1mb 47f 50f
2:24  -  mph 1018mb 47f 52f
2:18  -  mph 1017.8mb 47f 51f
2:12  -  5 mph 1017.7mb 47f 51f
2:06  -  3 mph 1017.6mb 47f 51f
2:00 3 5 mph 1017.6mb 47f 51f
1:54 1 3 mph 1017.6mb 47f 51f
1:48 1 6 mph 1017.6mb 47f 51f
1:42  -  3 mph 1017.6mb 47f 51f
1:36  -  6 mph 1017.6mb 47f 50f
1:30 3 6 mph 1017.6mb 47f 50f
1:24 6 8 mph 1017.6mb 47f 50f
1:18 7 10 mph 1017.8mb 47f 50f
1:12 8 9 mph 1017.7mb 47f 50f
1:06 8 9 mph 1017.7mb 47f 50f
1:00 7 11 mph 1017.6mb 47f 50f
12:54 8 11 mph 1017.5mb 47f 50f
12:48 6 11 mph 1017.4mb 47f 50f
12:42 10 15 mph 1017.3mb 47f 50f
12:36 11 14 mph 1017.5mb 47f 50f
12:30 9 11 mph 1017.5mb 47f 50f
12:24 8 10 mph 1017.5mb 47f 50f
12:18 8 11 mph 1017.5mb 47f 50f
12:12 9 11 mph 1017.5mb 47f 50f
12:06 10 11 mph 1017.5mb 47f 50f
12:00 11 14 mph 1017.5mb 47f 49f
11:54 14 17 mph 1017.7mb 47f 49f
11:48 14 16 mph 1017.6mb 47f 49f
11:42 10 14 mph 1017.6mb 47f 49f
11:36 9 16 mph 1017.6mb 47f 50f
11:30 11 17 mph 1017.6mb 47f 49f
11:24 10 14 mph 1017.6mb 47f 49f
11:18 7 10 mph 1017.6mb 47f 49f
11:12 8 14 mph 1017.6mb 47f 49f
11:06 10 14 mph 1017.6mb 47f 49f
11:00 6 11 mph 1017.7mb 47f 49f
10:54 5 7 mph 1017.8mb 47f 49f
10:48 5 10 mph 1017.8mb 47f 48f
10:42 9 14 mph 1017.8mb 48f 48f
10:36 9 15 mph 1017.9mb 48f 48f
10:30 9 14 mph 1017.7mb 48f 48f
10:24 10 15 mph 1017.6mb 48f 48f
10:18 8 14 mph 1017.6mb 48f 47f
10:12 9 15 mph 1017.6mb 48f 47f
10:06 11 17 mph 1017.6mb 48f 46f
10:00 11 16 mph 1017.4mb 48f 46f
9:54 10 14 mph 1017.4mb 48f 46f
9:48 9 13 mph 1017.2mb 48f 46f
9:42 10 15 mph 1017.4mb 48f 46f
9:36 13 17 mph 1017.2mb 48f 46f
9:30 10 15 mph 1017.3mb 48f 45f
9:24 9 14 mph 1017.4mb 48f 45f
9:18 11 15 mph 1017.3mb 48f 45f
9:00 10 16 mph 1017.1mb 48f 44f
8:54 9 16 mph 1017.1mb 48f 44f
8:48 7 11 mph 1017mb 48f 44f
8:42 7 14 mph 1016.8mb 48f 44f
8:36 7 11 mph 1016.9mb 48f 44f
8:30 5 9 mph 1016.8mb 48f 44f
8:24 6 11 mph 1016.6mb 48f 44f
8:18 5 10 mph 1016.7mb 48f 43f
8:12 7 13 mph 1016.6mb 48f 43f
8:06 7 11 mph 1016.3mb 48f 43f
8:00 8 13 mph 1016.1mb 48f 43f
7:54 9 14 mph 1016mb 48f 43f
7:48 8 15 mph 1016mb 48f 43f
7:42 11 16 mph 1016mb 48f 43f
7:36 11 17 mph 1015.8mb 48f 43f
7:30 13 16 mph 1015.8mb 48f 43f
7:24 9 16 mph 1015.7mb 48f 42f
7:12 10 17 mph 1015.7mb 48f 43f
7:06 9 15 mph 1015.6mb 48f 43f
7:00 10 15 mph 1015.5mb 48f 43f
6:54 10 14 mph 1015.4mb 48f 43f
6:48 9 14 mph 1015.3mb 48f 42f
6:42 10 16 mph 1015.3mb 48f 42f
6:36 11 17 mph 1015.1mb 48f 42f
6:30 8 16 mph 1015.1mb 48f 42f
6:18 11 15 mph 1014.9mb 48f 42f
6:12 10 17 mph 1014.7mb 48f 42f
6:06 8 16 mph 1014.7mb 48f 42f
6:00 10 17 mph 1014.6mb 48f 42f
5:54 10 17 mph 1014.6mb 48f 42f
5:48 11 17 mph 1014.4mb 48f 42f
5:42 14 20 mph 1014.4mb 48f 42f
5:36 9 16 mph 1014.3mb 48f 42f
5:30 7 15 mph 1014.2mb 48f 42f
5:24 10 16 mph 1014.1mb 48f 42f
5:18 10 20 mph 1014mb 48f 42f
5:06 10 16 mph 1013.8mb 48f 42f
5:00 9 15 mph 1013.8mb 48f 42f
4:54 10 15 mph 1013.6mb 48f 42f
4:48 10 17 mph 1013.6mb 48f 42f
4:42 11 17 mph 1013.5mb 48f 42f
4:36 13 20 mph 1013.5mb 48f 42f
4:30 13 17 mph 1013.6mb 48f 42f
4:18 9 17 mph 1013.4mb 48f 41f
4:12 10 16 mph 1013.4mb 48f 41f
4:06 13 18 mph 1013.5mb 48f 41f
4:00 8 13 mph 1013.4mb 48f 41f
3:54 8 15 mph 1013.4mb 48f 41f
3:48 10 21 mph 1013.3mb 48f 41f
3:42 10 14 mph 1013.3mb 48f 41f
3:36 8 15 mph 1013.1mb 48f 41f
3:30 6 11 mph 1013.1mb 48f 41f
3:24 7 14 mph 1013.1mb 48f 41f
3:18 10 14 mph 1013mb 47f 41f
3:12 9 14 mph 1013.1mb 48f 41f
3:06 10 14 mph 1013.1mb 48f 41f
3:00 10 15 mph 1013mb 47f 41f
2:54 7 13 mph 1013.1mb 47f 41f
2:48 9 16 mph 1013.1mb 48f 41f
2:42 11 17 mph 1013.1mb 48f 41f
2:36 10 20 mph 1013.1mb 48f 41f
2:30 13 18 mph 1013.1mb 48f 42f
2:24 11 17 mph 1013.3mb 48f 41f
2:18 11 17 mph 1013.3mb 47f 41f
2:12 11 15 mph 1013.3mb 48f 41f
2:06 9 16 mph 1013.3mb 47f 41f
2:00 10 16 mph 1013.3mb 48f 41f
1:54 13 17 mph 1013.4mb 48f 41f
1:48 11 16 mph 1013.4mb 48f 41f
1:42 10 16 mph 1013.3mb 48f 41f
1:36 9 15 mph 1013.4mb 48f 41f
1:30 11 15 mph 1013.3mb 48f 41f
1:24 11 18 mph 1013.4mb 48f 41f
1:18 11 18 mph 1013.4mb 48f 41f
1:12 9 15 mph 1013.3mb 48f 41f
1:06 8 15 mph 1013.2mb 48f 41f
1:00 10 15 mph 1012.9mb 48f 41f
12:54 11 17 mph 1012.7mb 48f 41f
12:48 11 17 mph 1012.6mb 48f 41f
12:42 9 17 mph 1012.8mb 48f 41f
12:36 10 17 mph 1012.8mb 48f 41f
12:30 11 20 mph 1012.8mb 48f 41f
12:24 15 21 mph 1012.7mb 48f 41f
12:18 16 22 mph 1012.6mb 48f 41f
12:12 15 21 mph 1012.7mb 48f 41f
12:06 13 22 mph 1012.8mb 48f 41f
12:00 16 24 mph 1012.8mb 48f 41f
Sa 11/22 11:54 16 25 mph 1012.8mb 48f 41f
11:48 15 20 mph 1012.8mb 48f 42f
11:42 13 23 mph 1012.7mb 48f 42f
11:36 15 23 mph 1012.8mb 48f 42f
11:30 11 20 mph 1012.8mb 48f 42f
11:24 13 21 mph 1013mb 48f 42f
11:18 11 17 mph 1012.8mb 48f 42f
11:12 10 24 mph 1013mb 48f 43f
11:06 11 20 mph 1012.8mb 48f 43f
11:00 15 22 mph 1012.9mb 48f 43f
10:54 16 25 mph 1012.7mb 48f 44f
10:42 13 25 mph 1012.8mb 48f 44f
10:36 11 20 mph 1012.7mb 48f 44f
10:30 15 28 mph 1012.4mb 48f 44f
10:24 16 29 mph 1012.5mb 48f 44f
10:18 13 20 mph 1012.6mb 48f 44f
10:12 16 25 mph 1012.5mb 48f 44f
10:06 14 26 mph 1012.2mb 48f 43f
10:00 17 25 mph 1012.2mb 48f 44f